Time;durP1;ratioP1;P1;durP2;ratioP2;P2;SDS_P1;SDS_P2;PMS_P1;PMS_P2;Temp;Humidity;BMP_temperature;BMP_pressure;BME280_temperature;BME280_humidity;BME280_pressure;Samples;Min_cycle;Max_cycle;Signal;HPM_P1;HPM_P2
2023/07/20 00:00:54;;;;;;;3.00;1.45;;;;;;;;;;5012725;28;20138;-64
2023/07/20 00:03:25;;;;;;;4.22;1.48;;;;;;;;;;5014741;28;20037;-64
2023/07/20 00:05:51;;;;;;;3.22;1.60;;;;;;;;;;5014025;28;20200;-64
2023/07/20 00:08:18;;;;;;;3.58;1.40;;;;;;;;;;5016026;28;20034;-64
2023/07/20 00:10:45;;;;;;;3.47;1.85;;;;;;;;;;5014622;28;20053;-64
2023/07/20 00:13:11;;;;;;;3.85;1.70;;;;;;;;;;5015897;28;20033;-64
2023/07/20 00:15:38;;;;;;;2.88;1.52;;;;;;;;;;5015418;28;20037;-64
2023/07/20 00:18:07;;;;;;;4.90;1.92;;;;;;;;;;5016113;28;20090;-64
2023/07/20 00:20:33;;;;;;;4.72;1.90;;;;;;;;;;5013916;28;20420;-64
2023/07/20 00:22:59;;;;;;;3.92;1.98;;;;;;;;;;5015665;28;20633;-63
2023/07/20 00:25:25;;;;;;;3.03;1.50;;;;;;;;;;5014862;28;20539;-63
2023/07/20 00:27:52;;;;;;;4.22;1.70;;;;;;;;;;5015762;28;20079;-64
2023/07/20 00:30:18;;;;;;;3.08;1.75;;;;;;;;;;5016224;28;20028;-64
2023/07/20 00:32:45;;;;;;;3.25;1.75;;;;;;;;;;5016040;28;20025;-64
2023/07/20 00:35:11;;;;;;;4.88;1.85;;;;;;;;;;5015274;28;20384;-64
2023/07/20 00:37:38;;;;;;;4.00;2.00;;;;;;;;;;5015026;28;20063;-64
2023/07/20 00:40:04;;;;;;;4.97;2.00;;;;;;;;;;5014852;28;20420;-64
2023/07/20 00:42:31;;;;;;;3.85;1.92;;;;;;;;;;5016080;28;20040;-64
2023/07/20 00:44:57;;;;;;;3.85;1.98;;;;;;;;;;5014811;28;20037;-64
2023/07/20 00:47:23;;;;;;;3.28;1.65;;;;;;;;;;5015752;28;20033;-63
2023/07/20 00:49:51;;;;;;;4.53;2.35;;;;;;;;;;5013833;28;20040;-63
2023/07/20 00:52:17;;;;;;;4.22;2.28;;;;;;;;;;5013378;28;20652;-64
2023/07/20 00:54:44;;;;;;;5.72;2.42;;;;;;;;;;5012828;28;20050;-64
2023/07/20 00:57:10;;;;;;;3.28;1.83;;;;;;;;;;5014573;28;20147;-64
2023/07/20 00:59:36;;;;;;;3.58;1.85;;;;;;;;;;5014193;28;20068;-63
2023/07/20 01:02:03;;;;;;;4.82;2.05;;;;;;;;;;5014753;28;20034;-64
2023/07/20 01:04:29;;;;;;;5.05;2.13;;;;;;;;;;5017484;28;20036;-64
2023/07/20 01:06:55;;;;;;;6.15;2.40;;;;;;;;;;5018390;28;20025;-64
2023/07/20 01:09:26;;;;;;;3.92;2.17;;;;;;;;;;5017481;28;20388;-64
2023/07/20 01:12:05;;;;;;;4.43;2.20;;;;;;;;;;5019343;28;20037;-64
2023/07/20 01:14:32;;;;;;;6.97;2.70;;;;;;;;;;5019089;28;20090;-64
2023/07/20 01:16:58;;;;;;;4.20;2.40;;;;;;;;;;5019070;28;20041;-63
2023/07/20 01:19:24;;;;;;;3.75;2.10;;;;;;;;;;5017748;28;20037;-64
2023/07/20 01:21:54;;;;;;;4.72;2.60;;;;;;;;;;5018685;28;20063;-64
2023/07/20 01:24:29;;;;;;;5.82;2.40;;;;;;;;;;5018663;28;20072;-63
2023/07/20 01:27:21;;;;;;;4.20;2.20;;;;;;;;;;5018763;28;20056;-63
2023/07/20 01:30:19;;;;;;;6.68;2.10;;;;;;;;;;5017968;28;20037;-64
2023/07/20 01:32:47;;;;;;;5.72;2.45;;;;;;;;;;5016688;28;20045;-63
2023/07/20 01:35:14;;;;;;;3.13;1.90;;;;;;;;;;5018584;28;20029;-64
2023/07/20 01:37:41;;;;;;;3.08;2.10;;;;;;;;;;5017014;28;20037;-64
2023/07/20 01:40:08;;;;;;;4.55;2.40;;;;;;;;;;5018002;28;20127;-63
2023/07/20 01:42:34;;;;;;;5.25;2.60;;;;;;;;;;5018118;28;20037;-63
2023/07/20 01:45:00;;;;;;;4.18;2.40;;;;;;;;;;5017952;28;20079;-64
2023/07/20 01:47:26;;;;;;;19.80;2.65;;;;;;;;;;5018081;28;20036;-64
2023/07/20 01:49:52;;;;;;;3.25;2.20;;;;;;;;;;5017914;28;20103;-63
2023/07/20 01:52:18;;;;;;;3.45;1.85;;;;;;;;;;5018995;28;20071;-63
2023/07/20 01:54:44;;;;;;;3.65;2.42;;;;;;;;;;5017627;28;20072;-63
2023/07/20 01:57:10;;;;;;;5.38;2.53;;;;;;;;;;5017616;28;20927;-63
2023/07/20 01:59:37;;;;;;;3.00;1.88;;;;;;;;;;5016579;28;20449;-64
2023/07/20 02:02:03;;;;;;;4.93;2.50;;;;;;;;;;5018025;28;20037;-63
2023/07/20 02:04:29;;;;;;;3.50;1.90;;;;;;;;;;5018563;28;20037;-64
2023/07/20 02:06:55;;;;;;;3.47;1.90;;;;;;;;;;5017160;28;20037;-66
2023/07/20 02:09:21;;;;;;;3.95;2.30;;;;;;;;;;5018245;28;20048;-63
2023/07/20 02:11:48;;;;;;;6.55;2.22;;;;;;;;;;5018251;28;20030;-63
2023/07/20 02:14:14;;;;;;;5.22;2.00;;;;;;;;;;5017677;28;20032;-64
2023/07/20 02:16:40;;;;;;;4.78;2.25;;;;;;;;;;5017749;28;20071;-63
2023/07/20 02:19:06;;;;;;;5.95;2.42;;;;;;;;;;5017395;28;20480;-63
2023/07/20 02:21:36;;;;;;;4.95;2.28;;;;;;;;;;5015905;28;20033;-64
2023/07/20 02:24:02;;;;;;;5.82;2.30;;;;;;;;;;5014265;28;20033;-63
2023/07/20 02:26:28;;;;;;;4.43;2.28;;;;;;;;;;5016886;28;20049;-63
2023/07/20 02:28:54;;;;;;;5.13;2.15;;;;;;;;;;5016784;28;20048;-63
2023/07/20 02:31:20;;;;;;;4.05;2.20;;;;;;;;;;5017966;28;20052;-63
2023/07/20 02:33:46;;;;;;;4.07;2.00;;;;;;;;;;5017579;28;20035;-63
2023/07/20 02:36:12;;;;;;;3.70;1.80;;;;;;;;;;5016399;28;20037;-64
2023/07/20 02:38:38;;;;;;;5.00;1.98;;;;;;;;;;5017068;28;20036;-64
2023/07/20 02:41:04;;;;;;;3.65;2.17;;;;;;;;;;5017775;28;20045;-63
2023/07/20 02:43:30;;;;;;;3.47;2.10;;;;;;;;;;5016946;28;20451;-63
2023/07/20 02:45:56;;;;;;;4.68;1.92;;;;;;;;;;5015464;28;20649;-63
2023/07/20 02:48:22;;;;;;;3.38;1.73;;;;;;;;;;5017176;28;20021;-63
2023/07/20 02:50:48;;;;;;;6.50;2.25;;;;;;;;;;5015698;28;20029;-64
2023/07/20 02:53:14;;;;;;;4.28;2.13;;;;;;;;;;5017372;28;20055;-64
2023/07/20 02:55:43;;;;;;;6.10;2.17;;;;;;;;;;5015773;28;20048;-64
2023/07/20 02:58:09;;;;;;;2.78;1.40;;;;;;;;;;5017277;28;20029;-63
2023/07/20 03:00:35;;;;;;;5.18;2.03;;;;;;;;;;5020166;28;20036;-63
2023/07/20 03:03:02;;;;;;;3.80;2.00;;;;;;;;;;5017092;28;20036;-63
2023/07/20 03:05:28;;;;;;;3.80;2.00;;;;;;;;;;5016522;28;20041;-63
2023/07/20 03:07:54;;;;;;;3.88;2.08;;;;;;;;;;5016299;28;20033;-64
2023/07/20 03:10:20;;;;;;;5.20;2.13;;;;;;;;;;5016895;28;20220;-64
2023/07/20 03:12:49;;;;;;;3.00;1.85;;;;;;;;;;5015896;28;20119;-64
2023/07/20 03:15:15;;;;;;;4.57;1.80;;;;;;;;;;5016955;28;20997;-63
2023/07/20 03:17:41;;;;;;;3.20;1.50;;;;;;;;;;5016347;28;20036;-64
2023/07/20 03:20:09;;;;;;;3.10;1.60;;;;;;;;;;5016185;28;20033;-63
2023/07/20 03:22:35;;;;;;;2.88;1.70;;;;;;;;;;5015467;28;20042;-65
2023/07/20 03:25:01;;;;;;;3.45;1.55;;;;;;;;;;5015524;28;21323;-63
2023/07/20 03:27:29;;;;;;;3.30;1.75;;;;;;;;;;5016218;28;20045;-63
2023/07/20 03:29:55;;;;;;;3.50;1.88;;;;;;;;;;5016190;28;20087;-63
2023/07/20 03:32:21;;;;;;;4.07;2.13;;;;;;;;;;5015824;28;20034;-63
2023/07/20 03:34:47;;;;;;;5.25;2.08;;;;;;;;;;5016689;28;20088;-64
2023/07/20 03:37:14;;;;;;;4.88;2.03;;;;;;;;;;5015962;28;20460;-63
2023/07/20 03:39:40;;;;;;;7.10;2.10;;;;;;;;;;5016979;28;20080;-63
2023/07/20 03:42:06;;;;;;;5.50;2.00;;;;;;;;;;5017080;28;20575;-64
2023/07/20 03:44:32;;;;;;;6.13;1.92;;;;;;;;;;5016130;28;20045;-64
2023/07/20 03:46:58;;;;;;;3.42;1.60;;;;;;;;;;5015236;28;20041;-63
2023/07/20 03:49:24;;;;;;;8.70;2.10;;;;;;;;;;5015443;28;20029;-63
2023/07/20 03:51:50;;;;;;;3.95;1.77;;;;;;;;;;5014128;28;20028;-63
2023/07/20 03:54:16;;;;;;;4.97;1.70;;;;;;;;;;5014433;28;20087;-63
2023/07/20 03:56:42;;;;;;;3.47;1.67;;;;;;;;;;5014546;28;20044;-66
2023/07/20 03:59:08;;;;;;;3.47;1.80;;;;;;;;;;5014183;28;20104;-66
2023/07/20 04:01:36;;;;;;;6.03;2.30;;;;;;;;;;5015257;28;20049;-64
2023/07/20 04:04:02;;;;;;;5.57;1.83;;;;;;;;;;5015341;28;20731;-63
2023/07/20 04:06:28;;;;;;;2.80;1.73;;;;;;;;;;5014310;28;20037;-63
2023/07/20 04:08:54;;;;;;;4.97;1.65;;;;;;;;;;5014877;28;20029;-63
2023/07/20 04:11:20;;;;;;;2.83;1.60;;;;;;;;;;5015744;28;20024;-63
2023/07/20 04:13:47;;;;;;;3.22;1.80;;;;;;;;;;5015608;28;20041;-63
2023/07/20 04:16:13;;;;;;;3.35;1.40;;;;;;;;;;5015503;28;20044;-63
2023/07/20 04:18:39;;;;;;;2.63;1.55;;;;;;;;;;5015566;28;20046;-63
2023/07/20 04:21:05;;;;;;;2.83;1.33;;;;;;;;;;5015395;28;20036;-63
2023/07/20 04:23:31;;;;;;;2.80;1.70;;;;;;;;;;5015182;28;20033;-63
2023/07/20 04:25:57;;;;;;;2.83;1.58;;;;;;;;;;5014964;28;20204;-64
2023/07/20 04:28:23;;;;;;;5.72;1.90;;;;;;;;;;5016119;28;20127;-63
2023/07/20 04:30:51;;;;;;;4.78;1.60;;;;;;;;;;5015617;28;20079;-63
2023/07/20 04:33:18;;;;;;;5.63;2.33;;;;;;;;;;5014618;28;20029;-63
2023/07/20 04:35:52;;;;;;;3.08;1.60;;;;;;;;;;5013054;28;20052;-63
2023/07/20 04:38:18;;;;;;;4.13;2.08;;;;;;;;;;5014562;28;20028;-63
2023/07/20 04:40:45;;;;;;;6.20;2.00;;;;;;;;;;5015378;28;20165;-66
2023/07/20 04:43:11;;;;;;;4.63;1.75;;;;;;;;;;5015191;28;20052;-66
2023/07/20 04:45:37;;;;;;;3.47;1.65;;;;;;;;;;5013905;28;20107;-66
2023/07/20 04:48:05;;;;;;;2.63;1.52;;;;;;;;;;5015859;28;20045;-66
2023/07/20 04:50:31;;;;;;;4.50;2.17;;;;;;;;;;5014765;28;20033;-66
2023/07/20 04:52:57;;;;;;;3.83;1.60;;;;;;;;;;5014787;28;20033;-66
2023/07/20 04:55:23;;;;;;;5.95;1.80;;;;;;;;;;5014725;28;20079;-68
2023/07/20 04:57:50;;;;;;;2.88;1.48;;;;;;;;;;5014994;28;20039;-67
2023/07/20 05:00:17;;;;;;;3.83;1.63;;;;;;;;;;5014644;28;20037;-67
2023/07/20 05:02:43;;;;;;;2.35;1.42;;;;;;;;;;5015073;28;20122;-68
2023/07/20 05:05:09;;;;;;;3.83;1.77;;;;;;;;;;5014946;28;20060;-67
2023/07/20 05:07:35;;;;;;;3.63;1.63;;;;;;;;;;5013302;28;20030;-67
2023/07/20 05:10:01;;;;;;;3.58;1.40;;;;;;;;;;5013379;28;20025;-68
2023/07/20 05:12:27;;;;;;;4.38;1.45;;;;;;;;;;5011553;28;20167;-70
2023/07/20 05:14:53;;;;;;;4.85;1.73;;;;;;;;;;5014131;28;20048;-63
2023/07/20 05:17:19;;;;;;;2.83;1.60;;;;;;;;;;5012292;28;20033;-68
2023/07/20 05:19:45;;;;;;;4.93;1.45;;;;;;;;;;5012657;28;20557;-68
2023/07/20 05:22:13;;;;;;;4.45;1.45;;;;;;;;;;5013930;28;20789;-67
2023/07/20 05:24:40;;;;;;;4.10;1.58;;;;;;;;;;5014442;28;20043;-67
2023/07/20 05:27:06;;;;;;;4.43;1.70;;;;;;;;;;5013911;28;20136;-67
2023/07/20 05:29:32;;;;;;;4.15;1.58;;;;;;;;;;5013038;28;20164;-67
2023/07/20 05:31:59;;;;;;;5.07;1.65;;;;;;;;;;5011881;28;20087;-67
2023/07/20 05:34:25;;;;;;;2.80;1.50;;;;;;;;;;5012962;28;20032;-68
2023/07/20 05:36:51;;;;;;;3.30;1.40;;;;;;;;;;5005338;28;20681;-68
2023/07/20 05:39:18;;;;;;;3.63;1.20;;;;;;;;;;5010569;28;20596;-69
2023/07/20 05:41:44;;;;;;;3.90;1.80;;;;;;;;;;5006129;28;20120;-69
2023/07/20 05:44:10;;;;;;;4.78;1.40;;;;;;;;;;5010066;28;20036;-69
2023/07/20 05:46:36;;;;;;;3.20;1.80;;;;;;;;;;5013914;28;20084;-69
2023/07/20 05:49:02;;;;;;;5.85;1.73;;;;;;;;;;5016593;28;20056;-69
2023/07/20 05:51:28;;;;;;;4.35;1.65;;;;;;;;;;5016368;28;20107;-69
2023/07/20 05:53:54;;;;;;;4.22;1.42;;;;;;;;;;5016829;28;20048;-69
2023/07/20 05:56:20;;;;;;;2.85;1.35;;;;;;;;;;5020648;28;20075;-69
2023/07/20 05:58:46;;;;;;;4.47;1.70;;;;;;;;;;5016786;28;20139;-69
2023/07/20 06:01:12;;;;;;;5.50;1.65;;;;;;;;;;5017956;28;20037;-69
2023/07/20 06:03:38;;;;;;;3.28;1.35;;;;;;;;;;5017517;28;20037;-69
2023/07/20 06:06:05;;;;;;;2.83;1.23;;;;;;;;;;5017487;28;20041;-69
2023/07/20 06:08:31;;;;;;;3.58;1.60;;;;;;;;;;5014563;28;20033;-69
2023/07/20 06:10:58;;;;;;;8.52;1.73;;;;;;;;;;5016860;28;21445;-69
2023/07/20 06:13:25;;;;;;;3.40;1.10;;;;;;;;;;5016666;28;20034;-70
2023/07/20 06:15:51;;;;;;;6.35;1.40;;;;;;;;;;5016392;28;20132;-69
2023/07/20 06:18:17;;;;;;;5.30;1.23;;;;;;;;;;5017579;28;20132;-69
2023/07/20 06:20:43;;;;;;;4.05;1.33;;;;;;;;;;5016427;28;20103;-69
2023/07/20 06:23:09;;;;;;;2.70;1.08;;;;;;;;;;5017105;28;20083;-69
2023/07/20 06:25:35;;;;;;;5.13;1.30;;;;;;;;;;5015633;28;20048;-69
2023/07/20 06:28:04;;;;;;;2.85;0.98;;;;;;;;;;5017628;28;20071;-69
2023/07/20 06:30:30;;;;;;;3.03;1.23;;;;;;;;;;5015513;28;20030;-70
2023/07/20 06:32:56;;;;;;;2.72;1.10;;;;;;;;;;5016018;28;21317;-69
2023/07/20 06:35:22;;;;;;;3.22;1.38;;;;;;;;;;5017083;28;20536;-70
2023/07/20 06:37:48;;;;;;;2.97;1.08;;;;;;;;;;5016509;28;20079;-70
2023/07/20 06:40:14;;;;;;;3.67;1.10;;;;;;;;;;5015741;28;21665;-69
2023/07/20 06:42:40;;;;;;;2.90;1.15;;;;;;;;;;5016082;28;20037;-70
2023/07/20 06:45:06;;;;;;;2.78;1.13;;;;;;;;;;5021520;28;20044;-70
2023/07/20 06:47:32;;;;;;;4.70;1.13;;;;;;;;;;5018239;28;20033;-70
2023/07/20 06:49:58;;;;;;;3.45;1.08;;;;;;;;;;5017554;28;20759;-70
2023/07/20 06:52:24;;;;;;;6.00;1.33;;;;;;;;;;5015728;28;20706;-70
2023/07/20 06:54:51;;;;;;;3.65;1.38;;;;;;;;;;5017536;28;21197;-70
2023/07/20 06:57:17;;;;;;;4.18;1.23;;;;;;;;;;5016938;28;20040;-70
2023/07/20 06:59:43;;;;;;;3.45;1.23;;;;;;;;;;5017673;28;20029;-70
2023/07/20 07:02:09;;;;;;;3.85;1.10;;;;;;;;;;5016805;28;20029;-70
2023/07/20 07:04:35;;;;;;;3.88;1.40;;;;;;;;;;5021519;28;20040;-70
2023/07/20 07:07:03;;;;;;;4.55;1.30;;;;;;;;;;5016905;28;20033;-70
2023/07/20 07:09:29;;;;;;;5.05;1.35;;;;;;;;;;5017529;28;20036;-70
2023/07/20 07:11:55;;;;;;;2.92;1.13;;;;;;;;;;5016386;28;20021;-70
2023/07/20 07:14:21;;;;;;;5.00;1.70;;;;;;;;;;5017352;28;20048;-70
2023/07/20 07:16:48;;;;;;;8.45;1.75;;;;;;;;;;5017432;28;21383;-70
2023/07/20 07:19:14;;;;;;;3.45;1.40;;;;;;;;;;5016690;28;20046;-70
2023/07/20 07:21:40;;;;;;;5.90;1.70;;;;;;;;;;5015831;28;20060;-70
2023/07/20 07:24:07;;;;;;;4.55;1.73;;;;;;;;;;5017207;28;20036;-70
2023/07/20 07:26:33;;;;;;;5.57;2.13;;;;;;;;;;5017200;28;20406;-70
2023/07/20 07:29:00;;;;;;;5.30;2.03;;;;;;;;;;5017060;28;20021;-70
2023/07/20 07:31:26;;;;;;;6.63;2.15;;;;;;;;;;5015025;28;20420;-70
2023/07/20 07:33:52;;;;;;;4.70;1.80;;;;;;;;;;5015460;28;20025;-69
2023/07/20 07:36:18;;;;;;;5.75;1.88;;;;;;;;;;5015568;28;20040;-70
2023/07/20 07:38:44;;;;;;;4.97;1.48;;;;;;;;;;5015135;28;20052;-70
2023/07/20 07:41:10;;;;;;;4.72;1.85;;;;;;;;;;5013364;28;20059;-70
2023/07/20 07:43:38;;;;;;;7.50;2.13;;;;;;;;;;5013467;28;20029;-70
2023/07/20 07:46:04;;;;;;;4.63;1.88;;;;;;;;;;5014339;28;20057;-70
2023/07/20 07:48:30;;;;;;;7.20;1.85;;;;;;;;;;5014877;28;20062;-70
2023/07/20 07:50:56;;;;;;;7.22;1.83;;;;;;;;;;5012723;28;20120;-70
2023/07/20 07:53:22;;;;;;;4.85;1.95;;;;;;;;;;5014844;28;20570;-70
2023/07/20 07:55:48;;;;;;;4.80;1.50;;;;;;;;;;5016550;28;20049;-70
2023/07/20 07:58:15;;;;;;;4.93;1.77;;;;;;;;;;5016096;28;20040;-70
2023/07/20 08:00:41;;;;;;;5.78;1.73;;;;;;;;;;5015629;28;20179;-70
2023/07/20 08:03:07;;;;;;;5.10;1.45;;;;;;;;;;5015059;28;20067;-70
2023/07/20 08:05:34;;;;;;;8.75;2.13;;;;;;;;;;5015083;28;20029;-70
2023/07/20 08:08:01;;;;;;;8.23;1.73;;;;;;;;;;5015917;28;20512;-70
2023/07/20 08:10:27;;;;;;;5.97;1.63;;;;;;;;;;5016475;28;20029;-70
2023/07/20 08:12:53;;;;;;;5.97;1.40;;;;;;;;;;5014554;28;20064;-70
2023/07/20 08:15:19;;;;;;;6.70;1.70;;;;;;;;;;5015439;28;20061;-70
2023/07/20 08:17:45;;;;;;;3.67;1.27;;;;;;;;;;5015323;28;20029;-70
2023/07/20 08:20:12;;;;;;;4.25;1.00;;;;;;;;;;5015904;28;20037;-70
2023/07/20 08:22:39;;;;;;;7.72;1.35;;;;;;;;;;5014841;28;20036;-70
2023/07/20 08:25:05;;;;;;;6.18;1.23;;;;;;;;;;5015741;28;20372;-70
2023/07/20 08:27:31;;;;;;;3.22;1.02;;;;;;;;;;5015516;28;20100;-70
2023/07/20 08:29:57;;;;;;;5.13;1.30;;;;;;;;;;5015310;28;20033;-70
2023/07/20 08:32:23;;;;;;;5.45;1.17;;;;;;;;;;5015091;28;20055;-70
2023/07/20 08:34:50;;;;;;;4.97;1.00;;;;;;;;;;5013316;28;20033;-70
2023/07/20 08:37:16;;;;;;;6.32;1.38;;;;;;;;;;5011151;28;20033;-70
2023/07/20 08:39:42;;;;;;;3.20;1.02;;;;;;;;;;5014210;28;20028;-70
2023/07/20 08:42:10;;;;;;;3.40;0.75;;;;;;;;;;5014090;28;21969;-70
2023/07/20 08:44:37;;;;;;;2.45;0.80;;;;;;;;;;5015073;28;20065;-70
2023/07/20 08:47:03;;;;;;;3.00;1.00;;;;;;;;;;5014198;28;20071;-70
2023/07/20 08:49:30;;;;;;;1.90;0.85;;;;;;;;;;5014218;28;20540;-69
2023/07/20 08:51:56;;;;;;;2.53;0.75;;;;;;;;;;5015105;28;20032;-69
2023/07/20 08:54:22;;;;;;;2.33;0.95;;;;;;;;;;5014652;28;20033;-70
2023/07/20 08:56:49;;;;;;;2.15;0.60;;;;;;;;;;5014305;28;20067;-70
2023/07/20 08:59:21;;;;;;;4.18;1.00;;;;;;;;;;5014694;28;20029;-70
2023/07/20 09:01:47;;;;;;;3.22;0.88;;;;;;;;;;5015509;28;20060;-70
2023/07/20 09:04:14;;;;;;;4.10;0.80;;;;;;;;;;5014430;28;20133;-70
2023/07/20 09:06:40;;;;;;;3.08;0.85;;;;;;;;;;5015030;28;20029;-70
2023/07/20 09:09:06;;;;;;;4.43;0.80;;;;;;;;;;5015174;28;20082;-70
2023/07/20 09:11:32;;;;;;;2.10;0.70;;;;;;;;;;5014986;28;20033;-70
2023/07/20 09:14:05;;;;;;;2.72;0.73;;;;;;;;;;5015161;28;20112;-70
2023/07/20 09:16:31;;;;;;;3.95;0.80;;;;;;;;;;5014487;28;20777;-70
2023/07/20 09:18:58;;;;;;;3.28;1.02;;;;;;;;;;5014304;28;20044;-70
2023/07/20 09:21:29;;;;;;;3.22;0.75;;;;;;;;;;5013375;28;20067;-69
2023/07/20 09:23:57;;;;;;;2.35;0.80;;;;;;;;;;5014222;28;20126;-70
2023/07/20 09:26:23;;;;;;;2.88;0.70;;;;;;;;;;5018012;28;20045;-70
2023/07/20 09:28:50;;;;;;;3.13;0.93;;;;;;;;;;5015033;28;20030;-70
2023/07/20 09:31:19;;;;;;;5.13;1.35;;;;;;;;;;5017312;28;20110;-70
2023/07/20 09:33:46;;;;;;;2.58;0.70;;;;;;;;;;5016086;28;20555;-70
2023/07/20 09:36:12;;;;;;;1.83;0.70;;;;;;;;;;5017776;28;20095;-70
2023/07/20 09:38:39;;;;;;;4.63;1.13;;;;;;;;;;5017258;28;20084;-70
2023/07/20 09:41:08;;;;;;;2.70;0.70;;;;;;;;;;5017842;28;21643;-70
2023/07/20 09:43:37;;;;;;;4.82;1.20;;;;;;;;;;5018096;28;20136;-70
2023/07/20 09:46:03;;;;;;;2.88;0.95;;;;;;;;;;5017895;28;20036;-69
2023/07/20 09:48:30;;;;;;;3.60;0.90;;;;;;;;;;5016365;28;20051;-70
2023/07/20 09:50:56;;;;;;;2.33;0.60;;;;;;;;;;5017688;28;20037;-70
2023/07/20 09:53:24;;;;;;;4.55;0.70;;;;;;;;;;5017784;28;20049;-70
2023/07/20 09:55:51;;;;;;;6.35;0.90;;;;;;;;;;5018163;28;20030;-70
2023/07/20 09:58:17;;;;;;;4.80;0.85;;;;;;;;;;5022192;28;20036;-70
2023/07/20 10:00:50;;;;;;;4.25;1.02;;;;;;;;;;5018368;28;20072;-69
2023/07/20 10:03:19;;;;;;;2.92;1.15;;;;;;;;;;5018126;28;20072;-69
2023/07/20 10:06:07;;;;;;;4.57;0.80;;;;;;;;;;5017670;28;20044;-70
2023/07/20 10:08:33;;;;;;;3.15;0.70;;;;;;;;;;5017356;28;20070;-70
2023/07/20 10:11:00;;;;;;;4.55;0.95;;;;;;;;;;5018664;28;20042;-70
2023/07/20 10:13:28;;;;;;;3.75;0.88;;;;;;;;;;5012741;28;20086;-69
2023/07/20 10:16:04;;;;;;;2.20;0.70;;;;;;;;;;5018284;28;20040;-70
2023/07/20 10:18:50;;;;;;;3.33;0.77;;;;;;;;;;5018488;28;20500;-69
2023/07/20 10:21:19;;;;;;;3.85;0.88;;;;;;;;;;5014439;28;20587;-69
2023/07/20 10:23:45;;;;;;;4.63;1.30;;;;;;;;;;5017047;28;20051;-70
2023/07/20 10:26:12;;;;;;;2.25;0.60;;;;;;;;;;5016941;28;20059;-65
2023/07/20 10:28:39;;;;;;;3.38;0.80;;;;;;;;;;5017954;28;20524;-65
2023/07/20 10:31:07;;;;;;;2.97;1.00;;;;;;;;;;5021661;28;20045;-65
2023/07/20 10:33:33;;;;;;;7.10;1.52;;;;;;;;;;5017278;28;20029;-65
2023/07/20 10:36:05;;;;;;;9.50;1.00;;;;;;;;;;5015362;28;20048;-65
2023/07/20 10:38:41;;;;;;;2.75;0.93;;;;;;;;;;5017588;28;20037;-65
2023/07/20 10:41:20;;;;;;;2.55;0.90;;;;;;;;;;5018164;28;20060;-65
2023/07/20 10:43:46;;;;;;;4.28;1.02;;;;;;;;;;5017718;28;21530;-65
2023/07/20 10:46:13;;;;;;;3.70;0.90;;;;;;;;;;5015583;28;20034;-65
2023/07/20 10:48:58;;;;;;;2.83;0.75;;;;;;;;;;5017853;28;20396;-65
2023/07/20 10:51:24;;;;;;;2.75;0.73;;;;;;;;;;5018114;28;20051;-65
2023/07/20 10:53:51;;;;;;;7.38;1.38;;;;;;;;;;5017769;28;20493;-65
2023/07/20 10:56:21;;;;;;;5.05;1.10;;;;;;;;;;5018033;28;20734;-64
2023/07/20 10:58:48;;;;;;;2.42;0.68;;;;;;;;;;5018531;28;20071;-65
2023/07/20 11:01:14;;;;;;;2.65;1.00;;;;;;;;;;5015930;28;20132;-65
2023/07/20 11:03:41;;;;;;;2.65;0.93;;;;;;;;;;5016886;28;21842;-65
2023/07/20 11:06:31;;;;;;;4.18;0.90;;;;;;;;;;5017267;28;20033;-65
2023/07/20 11:09:03;;;;;;;3.92;1.00;;;;;;;;;;5017348;28;20037;-65
2023/07/20 11:11:30;;;;;;;2.20;1.00;;;;;;;;;;5016784;28;20024;-65
2023/07/20 11:14:00;;;;;;;4.97;0.80;;;;;;;;;;5016738;28;20044;-65
2023/07/20 11:16:35;;;;;;;3.88;0.88;;;;;;;;;;5019605;28;20087;-64
2023/07/20 11:19:02;;;;;;;3.47;0.98;;;;;;;;;;5024502;28;20036;-65
2023/07/20 11:21:28;;;;;;;5.63;1.25;;;;;;;;;;5023784;28;20033;-65
2023/07/20 11:23:54;;;;;;;3.38;0.85;;;;;;;;;;5024467;28;20040;-64
2023/07/20 11:26:20;;;;;;;5.18;1.23;;;;;;;;;;5022652;28;20040;-65
2023/07/20 11:28:51;;;;;;;3.40;0.95;;;;;;;;;;5024664;28;20142;-65
2023/07/20 11:31:17;;;;;;;2.75;0.88;;;;;;;;;;5023667;28;20091;-65
2023/07/20 11:33:43;;;;;;;3.53;1.35;;;;;;;;;;5022352;28;20138;-65
2023/07/20 11:36:09;;;;;;;2.42;0.88;;;;;;;;;;5021812;28;20037;-65
2023/07/20 11:38:40;;;;;;;3.38;0.80;;;;;;;;;;5023544;28;20029;-65
2023/07/20 11:41:06;;;;;;;2.28;0.80;;;;;;;;;;5023429;28;20854;-65
2023/07/20 11:43:37;;;;;;;4.40;0.88;;;;;;;;;;5023571;28;20083;-65
2023/07/20 11:46:05;;;;;;;3.38;0.90;;;;;;;;;;5022924;28;20040;-65
2023/07/20 11:48:31;;;;;;;3.97;1.00;;;;;;;;;;5022023;28;20021;-65
2023/07/20 11:50:57;;;;;;;2.38;0.95;;;;;;;;;;5024338;28;20032;-65
2023/07/20 11:53:25;;;;;;;5.03;1.00;;;;;;;;;;5023156;28;21032;-65
2023/07/20 11:55:51;;;;;;;2.70;0.93;;;;;;;;;;5024177;28;20028;-65
2023/07/20 11:58:18;;;;;;;9.13;1.25;;;;;;;;;;5023804;28;20385;-65
2023/07/20 12:00:45;;;;;;;3.88;1.05;;;;;;;;;;5029473;28;20037;-65
2023/07/20 12:03:12;;;;;;;3.83;1.38;;;;;;;;;;5023873;28;20124;-65
2023/07/20 12:05:39;;;;;;;3.53;0.75;;;;;;;;;;5024050;28;20104;-64
2023/07/20 12:08:05;;;;;;;4.28;1.00;;;;;;;;;;5023935;28;20036;-64
2023/07/20 12:10:31;;;;;;;4.28;0.95;;;;;;;;;;5023543;28;20032;-64
2023/07/20 12:13:04;;;;;;;4.53;0.80;;;;;;;;;;5023841;28;20091;-64
2023/07/20 12:15:31;;;;;;;4.65;0.95;;;;;;;;;;5022999;28;20068;-64
2023/07/20 12:17:58;;;;;;;5.72;1.35;;;;;;;;;;5022919;28;20488;-65
2023/07/20 12:20:35;;;;;;;2.30;0.60;;;;;;;;;;5023712;28;21071;-64
2023/07/20 12:23:04;;;;;;;3.55;1.30;;;;;;;;;;5022655;28;21116;-64
2023/07/20 12:25:39;;;;;;;3.03;0.90;;;;;;;;;;5023828;28;20049;-65
2023/07/20 12:28:05;;;;;;;3.03;0.65;;;;;;;;;;5023561;28;20045;-64
2023/07/20 12:30:31;;;;;;;2.10;0.90;;;;;;;;;;5024306;28;20029;-64
2023/07/20 12:32:57;;;;;;;4.43;0.85;;;;;;;;;;5023352;28;20032;-65
2023/07/20 12:35:24;;;;;;;2.83;1.00;;;;;;;;;;5023106;28;20492;-64
2023/07/20 12:37:51;;;;;;;1.60;0.80;;;;;;;;;;5022380;28;20041;-65
2023/07/20 12:40:17;;;;;;;4.10;0.90;;;;;;;;;;5023704;28;20138;-65
2023/07/20 12:42:44;;;;;;;4.95;1.20;;;;;;;;;;5022137;28;20189;-65
2023/07/20 12:45:11;;;;;;;2.38;0.70;;;;;;;;;;5023509;28;20067;-65
2023/07/20 12:47:37;;;;;;;2.60;0.85;;;;;;;;;;5022437;28;20056;-64
2023/07/20 12:50:06;;;;;;;3.63;0.93;;;;;;;;;;5018468;28;20037;-64
2023/07/20 12:52:32;;;;;;;3.90;1.00;;;;;;;;;;5015563;28;20571;-64
2023/07/20 12:54:58;;;;;;;4.75;1.20;;;;;;;;;;5018672;28;20036;-64
2023/07/20 12:57:24;;;;;;;5.00;1.05;;;;;;;;;;5021112;28;20033;-64
2023/07/20 12:59:50;;;;;;;4.50;1.30;;;;;;;;;;5021125;28;20060;-64
2023/07/20 13:02:17;;;;;;;2.22;0.80;;;;;;;;;;5023499;28;20091;-64
2023/07/20 13:04:43;;;;;;;2.72;0.80;;;;;;;;;;5021006;28;20038;-64
2023/07/20 13:07:13;;;;;;;4.65;0.90;;;;;;;;;;5023228;28;20108;-65
2023/07/20 13:09:39;;;;;;;3.20;0.85;;;;;;;;;;5021436;28;20068;-64
2023/07/20 13:12:05;;;;;;;6.57;1.45;;;;;;;;;;5021298;28;20134;-64
2023/07/20 13:14:32;;;;;;;5.53;1.40;;;;;;;;;;5021060;28;20029;-64
2023/07/20 13:16:58;;;;;;;3.15;1.13;;;;;;;;;;5019225;28;20033;-64
2023/07/20 13:19:24;;;;;;;3.35;1.05;;;;;;;;;;5022103;28;20025;-65
2023/07/20 13:21:51;;;;;;;4.65;1.25;;;;;;;;;;5021492;28;20026;-64
2023/07/20 13:24:17;;;;;;;6.10;1.20;;;;;;;;;;5019900;28;20080;-64
2023/07/20 13:26:43;;;;;;;4.15;1.27;;;;;;;;;;5020505;28;20083;-64
2023/07/20 13:29:09;;;;;;;3.10;0.90;;;;;;;;;;5021247;28;20040;-64
2023/07/20 13:31:36;;;;;;;2.80;0.82;;;;;;;;;;5020875;28;20116;-64
2023/07/20 13:34:02;;;;;;;5.45;1.27;;;;;;;;;;5021008;28;20025;-63
2023/07/20 13:36:28;;;;;;;1.15;0.60;;;;;;;;;;5020389;28;20796;-64
2023/07/20 13:38:54;;;;;;;4.57;1.00;;;;;;;;;;5020391;28;20389;-64
2023/07/20 13:41:20;;;;;;;3.28;0.98;;;;;;;;;;5022060;28;20849;-63
2023/07/20 13:43:46;;;;;;;3.25;0.95;;;;;;;;;;5021263;28;20075;-63
2023/07/20 13:46:12;;;;;;;4.07;1.10;;;;;;;;;;5020927;28;20048;-64
2023/07/20 13:48:38;;;;;;;2.38;0.85;;;;;;;;;;5020921;28;20033;-63
2023/07/20 13:51:04;;;;;;;3.80;1.05;;;;;;;;;;5022131;28;20044;-63
2023/07/20 13:53:31;;;;;;;2.35;0.77;;;;;;;;;;5021787;28;20036;-64
2023/07/20 13:55:58;;;;;;;2.75;0.90;;;;;;;;;;5023336;28;20400;-63
2023/07/20 13:58:24;;;;;;;3.75;1.10;;;;;;;;;;5028933;28;20049;-63
2023/07/20 14:00:50;;;;;;;2.80;0.85;;;;;;;;;;5023118;28;20033;-63
2023/07/20 14:03:16;;;;;;;2.92;0.90;;;;;;;;;;5020850;28;20163;-63
2023/07/20 14:05:43;;;;;;;3.03;1.15;;;;;;;;;;5022002;28;21860;-63
2023/07/20 14:08:09;;;;;;;3.05;1.00;;;;;;;;;;5022111;28;20029;-63
2023/07/20 14:10:36;;;;;;;2.20;0.75;;;;;;;;;;5024469;28;20087;-63
2023/07/20 14:13:02;;;;;;;4.07;1.00;;;;;;;;;;5026498;28;20059;-63
2023/07/20 14:15:28;;;;;;;2.28;0.85;;;;;;;;;;5025477;28;20033;-63
2023/07/20 14:17:54;;;;;;;4.50;0.90;;;;;;;;;;5026091;28;20079;-63
2023/07/20 14:20:20;;;;;;;2.88;1.08;;;;;;;;;;5031036;28;20037;-63
2023/07/20 14:22:47;;;;;;;5.05;1.05;;;;;;;;;;5025474;28;20080;-64
2023/07/20 14:25:13;;;;;;;3.55;0.80;;;;;;;;;;5025073;28;20030;-63
2023/07/20 14:27:39;;;;;;;4.82;1.20;;;;;;;;;;5025624;28;20045;-63
2023/07/20 14:30:09;;;;;;;5.10;1.10;;;;;;;;;;5026264;28;20033;-63
2023/07/20 14:32:35;;;;;;;3.50;0.90;;;;;;;;;;5023752;28;20883;-64
2023/07/20 14:35:01;;;;;;;3.25;1.00;;;;;;;;;;5024691;28;20087;-63
2023/07/20 14:37:27;;;;;;;3.50;1.13;;;;;;;;;;5024709;28;20074;-63
2023/07/20 14:39:53;;;;;;;4.85;1.10;;;;;;;;;;5017353;28;20110;-63
2023/07/20 14:42:19;;;;;;;3.38;1.30;;;;;;;;;;5018037;28;20041;-64